sensor_id;sensor_type;location;lat;lon;timestamp;temperature;humidity
7240;DHT22;3661;53.288;10.458;2022-10-18T00:02:17;15.60;99.90
7240;DHT22;3661;53.288;10.458;2022-10-18T00:05:12;15.50;99.90
7240;DHT22;3661;53.288;10.458;2022-10-18T00:07:49;15.50;99.90
7240;DHT22;3661;53.288;10.458;2022-10-18T00:10:24;15.50;99.90
7240;DHT22;3661;53.288;10.458;2022-10-18T00:13:01;15.50;99.90
7240;DHT22;3661;53.288;10.458;2022-10-18T00:15:56;15.50;99.90
7240;DHT22;3661;53.288;10.458;2022-10-18T00:18:32;15.50;99.90
7240;DHT22;3661;53.288;10.458;2022-10-18T00:21:13;15.50;99.90
7240;DHT22;3661;53.288;10.458;2022-10-18T00:31:09;15.50;99.90
7240;DHT22;3661;53.288;10.458;2022-10-18T00:33:55;15.50;99.90
7240;DHT22;3661;53.288;10.458;2022-10-18T00:36:38;15.50;99.90
7240;DHT22;3661;53.288;10.458;2022-10-18T00:42:55;15.50;99.90
7240;DHT22;3661;53.288;10.458;2022-10-18T00:45:35;15.50;99.90
7240;DHT22;3661;53.288;10.458;2022-10-18T00:48:11;15.40;99.90
7240;DHT22;3661;53.288;10.458;2022-10-18T00:50:51;15.40;99.90
7240;DHT22;3661;53.288;10.458;2022-10-18T00:53:28;15.50;99.90
7240;DHT22;3661;53.288;10.458;2022-10-18T00:56:12;15.40;99.90
7240;DHT22;3661;53.288;10.458;2022-10-18T00:58:56;15.40;99.90
7240;DHT22;3661;53.288;10.458;2022-10-18T01:01:29;15.40;99.90
7240;DHT22;3661;53.288;10.458;2022-10-18T01:04:05;15.40;99.90
7240;DHT22;3661;53.288;10.458;2022-10-18T01:06:44;15.40;99.90
7240;DHT22;3661;53.288;10.458;2022-10-18T01:09:27;15.40;99.90
7240;DHT22;3661;53.288;10.458;2022-10-18T01:12:13;15.40;99.90
7240;DHT22;3661;53.288;10.458;2022-10-18T01:15:01;15.40;99.90
7240;DHT22;3661;53.288;10.458;2022-10-18T01:17:41;15.30;99.90
7240;DHT22;3661;53.288;10.458;2022-10-18T01:27:10;15.30;99.90
7240;DHT22;3661;53.288;10.458;2022-10-18T01:30:14;15.30;99.90
7240;DHT22;3661;53.288;10.458;2022-10-18T01:32:53;15.30;99.90
7240;DHT22;3661;53.288;10.458;2022-10-18T01:35:34;15.30;99.90
7240;DHT22;3661;53.288;10.458;2022-10-18T01:38:15;15.20;99.90
7240;DHT22;3661;53.288;10.458;2022-10-18T01:40:49;15.20;99.90
7240;DHT22;3661;53.288;10.458;2022-10-18T01:43:28;15.20;99.90
7240;DHT22;3661;53.288;10.458;2022-10-18T01:46:07;15.20;99.90
7240;DHT22;3661;53.288;10.458;2022-10-18T01:48:53;15.20;99.90
7240;DHT22;3661;53.288;10.458;2022-10-18T01:51:29;15.20;99.90
7240;DHT22;3661;53.288;10.458;2022-10-18T01:54:40;15.10;99.90
7240;DHT22;3661;53.288;10.458;2022-10-18T01:57:06;15.10;99.90
7240;DHT22;3661;53.288;10.458;2022-10-18T01:59:49;15.10;99.90
7240;DHT22;3661;53.288;10.458;2022-10-18T02:02:36;15.10;99.90
7240;DHT22;3661;53.288;10.458;2022-10-18T02:05:25;15.00;99.90
7240;DHT22;3661;53.288;10.458;2022-10-18T02:08:05;15.00;99.90
7240;DHT22;3661;53.288;10.458;2022-10-18T02:10:42;15.00;99.90
7240;DHT22;3661;53.288;10.458;2022-10-18T02:13:20;15.00;99.90
7240;DHT22;3661;53.288;10.458;2022-10-18T02:15:56;14.90;99.90
7240;DHT22;3661;53.288;10.458;2022-10-18T02:18:37;14.90;99.90
7240;DHT22;3661;53.288;10.458;2022-10-18T02:21:18;14.90;99.90
7240;DHT22;3661;53.288;10.458;2022-10-18T02:23:54;14.90;99.90
7240;DHT22;3661;53.288;10.458;2022-10-18T02:26:26;14.80;99.90
7240;DHT22;3661;53.288;10.458;2022-10-18T02:29:00;14.80;99.90
7240;DHT22;3661;53.288;10.458;2022-10-18T02:31:38;14.80;99.90
7240;DHT22;3661;53.288;10.458;2022-10-18T02:34:19;14.70;99.90
7240;DHT22;3661;53.288;10.458;2022-10-18T02:36:57;14.70;99.90
7240;DHT22;3661;53.288;10.458;2022-10-18T02:39:36;14.60;99.90
7240;DHT22;3661;53.288;10.458;2022-10-18T02:42:13;14.60;99.90
7240;DHT22;3661;53.288;10.458;2022-10-18T02:44:47;14.60;99.90
7240;DHT22;3661;53.288;10.458;2022-10-18T02:47:20;14.50;99.90
7240;DHT22;3661;53.288;10.458;2022-10-18T02:50:03;14.50;99.90
7240;DHT22;3661;53.288;10.458;2022-10-18T02:52:35;14.40;99.90
7240;DHT22;3661;53.288;10.458;2022-10-18T02:55:08;14.40;99.90
7240;DHT22;3661;53.288;10.458;2022-10-18T02:57:41;14.40;99.90
7240;DHT22;3661;53.288;10.458;2022-10-18T03:00:14;14.30;99.90
7240;DHT22;3661;53.288;10.458;2022-10-18T03:02:46;14.20;99.90
7240;DHT22;3661;53.288;10.458;2022-10-18T03:05:20;14.20;99.90
7240;DHT22;3661;53.288;10.458;2022-10-18T03:07:52;14.10;99.90
7240;DHT22;3661;53.288;10.458;2022-10-18T03:10:30;14.10;99.90
7240;DHT22;3661;53.288;10.458;2022-10-18T03:13:02;14.00;99.90
7240;DHT22;3661;53.288;10.458;2022-10-18T03:15:35;14.00;99.90
7240;DHT22;3661;53.288;10.458;2022-10-18T03:18:07;13.90;99.90
7240;DHT22;3661;53.288;10.458;2022-10-18T03:20:41;13.90;99.90
7240;DHT22;3661;53.288;10.458;2022-10-18T03:23:14;13.80;99.90
7240;DHT22;3661;53.288;10.458;2022-10-18T03:25:46;13.80;99.90
7240;DHT22;3661;53.288;10.458;2022-10-18T03:28:19;13.70;99.90
7240;DHT22;3661;53.288;10.458;2022-10-18T03:30:52;13.70;99.90
7240;DHT22;3661;53.288;10.458;2022-10-18T03:33:25;13.60;99.90
7240;DHT22;3661;53.288;10.458;2022-10-18T03:36:02;13.70;99.90
7240;DHT22;3661;53.288;10.458;2022-10-18T03:38:36;13.60;99.90
7240;DHT22;3661;53.288;10.458;2022-10-18T03:41:25;13.50;99.90
7240;DHT22;3661;53.288;10.458;2022-10-18T03:44:11;13.50;99.90
7240;DHT22;3661;53.288;10.458;2022-10-18T03:52:34;13.40;99.90
7240;DHT22;3661;53.288;10.458;2022-10-18T03:55:09;13.40;99.90
7240;DHT22;3661;53.288;10.458;2022-10-18T03:57:42;13.40;99.90
7240;DHT22;3661;53.288;10.458;2022-10-18T04:00:16;13.30;99.90
7240;DHT22;3661;53.288;10.458;2022-10-18T04:02:49;13.30;99.90
7240;DHT22;3661;53.288;10.458;2022-10-18T04:05:22;13.20;99.90
7240;DHT22;3661;53.288;10.458;2022-10-18T04:08:04;13.20;99.90
7240;DHT22;3661;53.288;10.458;2022-10-18T04:10:37;13.20;99.90
7240;DHT22;3661;53.288;10.458;2022-10-18T04:13:10;13.20;99.90
7240;DHT22;3661;53.288;10.458;2022-10-18T04:15:42;13.20;99.90
7240;DHT22;3661;53.288;10.458;2022-10-18T04:18:15;13.20;99.90
7240;DHT22;3661;53.288;10.458;2022-10-18T04:20:48;13.10;99.90
7240;DHT22;3661;53.288;10.458;2022-10-18T04:23:22;13.10;99.90
7240;DHT22;3661;53.288;10.458;2022-10-18T04:25:55;13.10;99.90
7240;DHT22;3661;53.288;10.458;2022-10-18T04:28:28;13.10;99.90
7240;DHT22;3661;53.288;10.458;2022-10-18T04:31:01;13.10;99.90
7240;DHT22;3661;53.288;10.458;2022-10-18T04:33:41;13.00;99.90
7240;DHT22;3661;53.288;10.458;2022-10-18T04:36:18;13.00;99.90
7240;DHT22;3661;53.288;10.458;2022-10-18T04:38:55;13.00;99.90
7240;DHT22;3661;53.288;10.458;2022-10-18T04:41:29;13.00;99.90
7240;DHT22;3661;53.288;10.458;2022-10-18T04:44:02;12.90;99.90
7240;DHT22;3661;53.288;10.458;2022-10-18T04:46:39;13.00;99.90
7240;DHT22;3661;53.288;10.458;2022-10-18T04:52:23;13.00;99.90
7240;DHT22;3661;53.288;10.458;2022-10-18T04:55:02;13.00;99.90
7240;DHT22;3661;53.288;10.458;2022-10-18T04:57:36;13.00;99.90
7240;DHT22;3661;53.288;10.458;2022-10-18T05:00:09;13.00;99.90
7240;DHT22;3661;53.288;10.458;2022-10-18T05:02:44;13.00;99.90
7240;DHT22;3661;53.288;10.458;2022-10-18T05:05:17;13.00;99.90
7240;DHT22;3661;53.288;10.458;2022-10-18T05:07:50;13.00;99.90
7240;DHT22;3661;53.288;10.458;2022-10-18T05:10:24;13.00;99.90
7240;DHT22;3661;53.288;10.458;2022-10-18T05:12:59;13.00;99.90
7240;DHT22;3661;53.288;10.458;2022-10-18T05:15:31;13.00;99.90
7240;DHT22;3661;53.288;10.458;2022-10-18T05:18:04;13.00;99.90
7240;DHT22;3661;53.288;10.458;2022-10-18T05:20:37;13.00;99.90
7240;DHT22;3661;53.288;10.458;2022-10-18T05:23:10;12.90;99.90
7240;DHT22;3661;53.288;10.458;2022-10-18T05:25:43;12.90;99.90
7240;DHT22;3661;53.288;10.458;2022-10-18T05:28:15;12.90;99.90
7240;DHT22;3661;53.288;10.458;2022-10-18T05:36:09;13.00;99.90
7240;DHT22;3661;53.288;10.458;2022-10-18T05:38:42;12.90;99.90
7240;DHT22;3661;53.288;10.458;2022-10-18T05:41:16;12.90;99.90
7240;DHT22;3661;53.288;10.458;2022-10-18T05:43:49;12.90;99.90
7240;DHT22;3661;53.288;10.458;2022-10-18T05:46:21;13.00;99.90
7240;DHT22;3661;53.288;10.458;2022-10-18T05:48:53;12.90;99.90
7240;DHT22;3661;53.288;10.458;2022-10-18T05:51:25;12.90;99.90
7240;DHT22;3661;53.288;10.458;2022-10-18T05:53:57;12.90;99.90
7240;DHT22;3661;53.288;10.458;2022-10-18T05:56:31;12.90;99.90
7240;DHT22;3661;53.288;10.458;2022-10-18T05:59:04;12.90;99.90
7240;DHT22;3661;53.288;10.458;2022-10-18T06:01:40;12.90;99.90
7240;DHT22;3661;53.288;10.458;2022-10-18T06:04:13;12.90;99.90
7240;DHT22;3661;53.288;10.458;2022-10-18T06:06:47;12.90;99.90
7240;DHT22;3661;53.288;10.458;2022-10-18T06:09:19;12.90;99.90
7240;DHT22;3661;53.288;10.458;2022-10-18T06:11:54;12.80;99.90
7240;DHT22;3661;53.288;10.458;2022-10-18T09:52:53;14.50;99.90
7240;DHT22;3661;53.288;10.458;2022-10-18T09:55:57;14.60;99.90
7240;DHT22;3661;53.288;10.458;2022-10-18T09:58:48;14.50;99.90
7240;DHT22;3661;53.288;10.458;2022-10-18T10:09:29;14.50;99.90
7240;DHT22;3661;53.288;10.458;2022-10-18T10:12:04;14.50;99.90
7240;DHT22;3661;53.288;10.458;2022-10-18T10:14:42;14.60;99.90
7240;DHT22;3661;53.288;10.458;2022-10-18T10:17:23;14.70;99.90
7240;DHT22;3661;53.288;10.458;2022-10-18T10:20:01;14.80;99.90
7240;DHT22;3661;53.288;10.458;2022-10-18T10:22:36;14.90;99.90
7240;DHT22;3661;53.288;10.458;2022-10-18T10:25:25;15.00;99.90
7240;DHT22;3661;53.288;10.458;2022-10-18T10:28:02;15.20;99.90
7240;DHT22;3661;53.288;10.458;2022-10-18T10:30:36;15.40;99.90
7240;DHT22;3661;53.288;10.458;2022-10-18T10:33:31;15.50;99.90
7240;DHT22;3661;53.288;10.458;2022-10-18T10:36:19;15.80;99.90
7240;DHT22;3661;53.288;10.458;2022-10-18T10:39:03;16.00;99.90
7240;DHT22;3661;53.288;10.458;2022-10-18T10:41:39;16.20;99.90
7240;DHT22;3661;53.288;10.458;2022-10-18T10:44:15;16.30;99.90
7240;DHT22;3661;53.288;10.458;2022-10-18T10:46:48;16.50;99.90
7240;DHT22;3661;53.288;10.458;2022-10-18T10:49:24;16.70;99.90
7240;DHT22;3661;53.288;10.458;2022-10-18T10:52:03;16.80;99.90
7240;DHT22;3661;53.288;10.458;2022-10-18T10:54:37;16.90;99.90
7240;DHT22;3661;53.288;10.458;2022-10-18T10:57:20;17.00;99.90
7240;DHT22;3661;53.288;10.458;2022-10-18T10:59:58;17.00;99.90
7240;DHT22;3661;53.288;10.458;2022-10-18T11:02:33;17.10;99.90
7240;DHT22;3661;53.288;10.458;2022-10-18T11:05:18;17.20;99.90
7240;DHT22;3661;53.288;10.458;2022-10-18T11:07:55;17.30;99.90
7240;DHT22;3661;53.288;10.458;2022-10-18T11:10:33;17.30;99.90
7240;DHT22;3661;53.288;10.458;2022-10-18T11:13:20;17.40;99.90
7240;DHT22;3661;53.288;10.458;2022-10-18T11:15:58;17.50;99.90
7240;DHT22;3661;53.288;10.458;2022-10-18T11:18:36;17.50;99.90
7240;DHT22;3661;53.288;10.458;2022-10-18T11:21:16;17.50;99.90
7240;DHT22;3661;53.288;10.458;2022-10-18T11:23:49;17.60;99.90
7240;DHT22;3661;53.288;10.458;2022-10-18T11:26:46;17.70;99.90
7240;DHT22;3661;53.288;10.458;2022-10-18T11:29:41;17.80;99.90
7240;DHT22;3661;53.288;10.458;2022-10-18T11:32:21;17.80;99.90
7240;DHT22;3661;53.288;10.458;2022-10-18T11:35:10;17.80;99.90
7240;DHT22;3661;53.288;10.458;2022-10-18T11:37:58;17.80;99.90
7240;DHT22;3661;53.288;10.458;2022-10-18T11:40:44;17.80;99.90
7240;DHT22;3661;53.288;10.458;2022-10-18T11:43:23;17.80;99.90
7240;DHT22;3661;53.288;10.458;2022-10-18T11:46:02;17.80;99.90
7240;DHT22;3661;53.288;10.458;2022-10-18T11:48:52;17.80;99.90
7240;DHT22;3661;53.288;10.458;2022-10-18T11:51:34;17.80;99.90
7240;DHT22;3661;53.288;10.458;2022-10-18T11:54:23;17.80;99.90
7240;DHT22;3661;53.288;10.458;2022-10-18T11:57:04;17.70;99.90
7240;DHT22;3661;53.288;10.458;2022-10-18T11:59:46;17.70;99.90
7240;DHT22;3661;53.288;10.458;2022-10-18T12:02:38;17.70;99.90
7240;DHT22;3661;53.288;10.458;2022-10-18T12:05:16;17.60;99.90
7240;DHT22;3661;53.288;10.458;2022-10-18T12:07:56;17.60;99.90
7240;DHT22;3661;53.288;10.458;2022-10-18T12:10:33;17.70;99.90
7240;DHT22;3661;53.288;10.458;2022-10-18T12:13:07;17.70;99.90
7240;DHT22;3661;53.288;10.458;2022-10-18T12:15:44;17.60;99.90
7240;DHT22;3661;53.288;10.458;2022-10-18T12:18:22;17.60;99.90
7240;DHT22;3661;53.288;10.458;2022-10-18T12:20:57;17.60;99.90
7240;DHT22;3661;53.288;10.458;2022-10-18T12:23:36;17.70;99.90
7240;DHT22;3661;53.288;10.458;2022-10-18T12:26:09;17.60;99.90
7240;DHT22;3661;53.288;10.458;2022-10-18T12:28:53;17.70;99.90
7240;DHT22;3661;53.288;10.458;2022-10-18T12:31:31;17.80;99.90
7240;DHT22;3661;53.288;10.458;2022-10-18T12:34:27;17.80;99.90
7240;DHT22;3661;53.288;10.458;2022-10-18T12:37:28;17.80;99.90
7240;DHT22;3661;53.288;10.458;2022-10-18T12:40:05;17.80;99.90
7240;DHT22;3661;53.288;10.458;2022-10-18T12:42:43;17.70;99.90
7240;DHT22;3661;53.288;10.458;2022-10-18T12:45:24;17.70;99.90
7240;DHT22;3661;53.288;10.458;2022-10-18T12:47:59;17.70;99.90
7240;DHT22;3661;53.288;10.458;2022-10-18T12:50:37;17.70;99.90
7240;DHT22;3661;53.288;10.458;2022-10-18T12:53:17;17.60;99.90
7240;DHT22;3661;53.288;10.458;2022-10-18T12:55:50;17.60;99.90
7240;DHT22;3661;53.288;10.458;2022-10-18T12:58:31;17.60;99.90
7240;DHT22;3661;53.288;10.458;2022-10-18T13:01:07;17.50;99.90
7240;DHT22;3661;53.288;10.458;2022-10-18T13:03:54;17.40;99.90
7240;DHT22;3661;53.288;10.458;2022-10-18T13:09:36;17.40;99.90
7240;DHT22;3661;53.288;10.458;2022-10-18T13:15:36;17.30;99.90
7240;DHT22;3661;53.288;10.458;2022-10-18T13:18:19;17.20;99.90
7240;DHT22;3661;53.288;10.458;2022-10-18T13:21:11;17.20;99.90
7240;DHT22;3661;53.288;10.458;2022-10-18T13:24:03;17.10;99.90
7240;DHT22;3661;53.288;10.458;2022-10-18T13:27:00;17.10;99.90
7240;DHT22;3661;53.288;10.458;2022-10-18T13:29:51;17.10;99.90
7240;DHT22;3661;53.288;10.458;2022-10-18T13:32:33;17.10;99.90
7240;DHT22;3661;53.288;10.458;2022-10-18T13:35:40;17.10;99.90
7240;DHT22;3661;53.288;10.458;2022-10-18T13:38:38;17.00;99.90
7240;DHT22;3661;53.288;10.458;2022-10-18T13:41:13;17.00;99.90
7240;DHT22;3661;53.288;10.458;2022-10-18T13:44:09;17.00;99.90
7240;DHT22;3661;53.288;10.458;2022-10-18T13:50:30;17.00;99.90
7240;DHT22;3661;53.288;10.458;2022-10-18T13:53:30;17.00;99.90
7240;DHT22;3661;53.288;10.458;2022-10-18T13:56:33;17.00;99.90
7240;DHT22;3661;53.288;10.458;2022-10-18T13:59:26;17.10;99.90
7240;DHT22;3661;53.288;10.458;2022-10-18T14:05:19;17.10;99.90
7240;DHT22;3661;53.288;10.458;2022-10-18T14:08:10;17.10;99.90
7240;DHT22;3661;53.288;10.458;2022-10-18T14:10:56;17.10;99.90
7240;DHT22;3661;53.288;10.458;2022-10-18T14:13:37;17.10;99.90
7240;DHT22;3661;53.288;10.458;2022-10-18T14:16:26;17.00;99.90
7240;DHT22;3661;53.288;10.458;2022-10-18T14:19:07;17.00;99.90
7240;DHT22;3661;53.288;10.458;2022-10-18T14:21:52;17.00;99.90
7240;DHT22;3661;53.288;10.458;2022-10-18T14:24:25;17.00;99.90
7240;DHT22;3661;53.288;10.458;2022-10-18T14:27:17;16.90;99.90
7240;DHT22;3661;53.288;10.458;2022-10-18T14:30:07;16.80;99.90
7240;DHT22;3661;53.288;10.458;2022-10-18T14:32:51;16.80;99.90
7240;DHT22;3661;53.288;10.458;2022-10-18T14:35:32;16.80;99.90
7240;DHT22;3661;53.288;10.458;2022-10-18T14:38:12;16.80;99.90
7240;DHT22;3661;53.288;10.458;2022-10-18T14:41:04;16.70;99.90
7240;DHT22;3661;53.288;10.458;2022-10-18T14:43:41;16.60;99.90
7240;DHT22;3661;53.288;10.458;2022-10-18T14:46:22;16.60;99.90
7240;DHT22;3661;53.288;10.458;2022-10-18T14:49:21;16.60;99.90
7240;DHT22;3661;53.288;10.458;2022-10-18T14:51:55;16.60;99.90
7240;DHT22;3661;53.288;10.458;2022-10-18T14:54:31;16.60;99.90
7240;DHT22;3661;53.288;10.458;2022-10-18T14:57:04;16.60;99.90
7240;DHT22;3661;53.288;10.458;2022-10-18T14:59:42;16.60;99.90
7240;DHT22;3661;53.288;10.458;2022-10-18T15:02:18;16.60;99.90
7240;DHT22;3661;53.288;10.458;2022-10-18T15:04:58;16.70;99.90
7240;DHT22;3661;53.288;10.458;2022-10-18T15:07:31;16.70;99.90
7240;DHT22;3661;53.288;10.458;2022-10-18T15:10:04;16.80;99.90
7240;DHT22;3661;53.288;10.458;2022-10-18T15:12:37;16.80;99.90
7240;DHT22;3661;53.288;10.458;2022-10-18T15:15:17;16.80;99.90
7240;DHT22;3661;53.288;10.458;2022-10-18T15:17:50;16.80;99.90
7240;DHT22;3661;53.288;10.458;2022-10-18T15:20:26;16.80;99.90
7240;DHT22;3661;53.288;10.458;2022-10-18T15:23:24;16.70;99.90
7240;DHT22;3661;53.288;10.458;2022-10-18T15:25:59;16.70;99.90
7240;DHT22;3661;53.288;10.458;2022-10-18T15:28:35;16.60;99.90
7240;DHT22;3661;53.288;10.458;2022-10-18T15:31:18;16.50;99.90
7240;DHT22;3661;53.288;10.458;2022-10-18T15:33:53;16.50;99.90
7240;DHT22;3661;53.288;10.458;2022-10-18T15:36:28;16.40;99.90
7240;DHT22;3661;53.288;10.458;2022-10-18T15:39:07;16.30;99.90
7240;DHT22;3661;53.288;10.458;2022-10-18T15:41:42;16.20;99.90
7240;DHT22;3661;53.288;10.458;2022-10-18T15:44:20;16.20;99.90
7240;DHT22;3661;53.288;10.458;2022-10-18T15:46:54;16.10;99.90
7240;DHT22;3661;53.288;10.458;2022-10-18T15:49:59;16.00;99.90
7240;DHT22;3661;53.288;10.458;2022-10-18T15:52:36;15.90;99.90
7240;DHT22;3661;53.288;10.458;2022-10-18T15:55:45;15.80;99.90
7240;DHT22;3661;53.288;10.458;2022-10-18T15:58:21;15.70;99.90
7240;DHT22;3661;53.288;10.458;2022-10-18T16:00:55;15.70;99.90
7240;DHT22;3661;53.288;10.458;2022-10-18T16:03:32;15.60;99.90
7240;DHT22;3661;53.288;10.458;2022-10-18T16:06:06;15.50;99.90
7240;DHT22;3661;53.288;10.458;2022-10-18T16:08:42;15.50;99.90
7240;DHT22;3661;53.288;10.458;2022-10-18T16:11:17;15.40;99.90
7240;DHT22;3661;53.288;10.458;2022-10-18T16:13:50;15.30;99.90
7240;DHT22;3661;53.288;10.458;2022-10-18T16:16:24;15.30;99.90
7240;DHT22;3661;53.288;10.458;2022-10-18T16:18:57;15.20;99.90
7240;DHT22;3661;53.288;10.458;2022-10-18T16:21:31;15.10;99.90
7240;DHT22;3661;53.288;10.458;2022-10-18T16:24:05;15.00;99.90
7240;DHT22;3661;53.288;10.458;2022-10-18T16:26:37;15.00;99.90
7240;DHT22;3661;53.288;10.458;2022-10-18T16:29:12;14.90;99.90
7240;DHT22;3661;53.288;10.458;2022-10-18T16:31:45;14.80;99.90
7240;DHT22;3661;53.288;10.458;2022-10-18T16:34:20;14.80;99.90
7240;DHT22;3661;53.288;10.458;2022-10-18T16:36:53;14.70;99.90
7240;DHT22;3661;53.288;10.458;2022-10-18T16:39:26;14.70;99.90
7240;DHT22;3661;53.288;10.458;2022-10-18T16:42:04;14.60;99.90
7240;DHT22;3661;53.288;10.458;2022-10-18T16:44:36;14.60;99.90
7240;DHT22;3661;53.288;10.458;2022-10-18T16:47:10;14.50;99.90
7240;DHT22;3661;53.288;10.458;2022-10-18T16:49:42;14.50;99.90
7240;DHT22;3661;53.288;10.458;2022-10-18T16:52:14;14.50;99.90
7240;DHT22;3661;53.288;10.458;2022-10-18T16:54:48;14.50;99.90
7240;DHT22;3661;53.288;10.458;2022-10-18T16:57:20;14.40;99.90
7240;DHT22;3661;53.288;10.458;2022-10-18T16:59:52;14.40;99.90
7240;DHT22;3661;53.288;10.458;2022-10-18T17:02:24;14.40;99.90
7240;DHT22;3661;53.288;10.458;2022-10-18T17:04:56;14.40;99.90
7240;DHT22;3661;53.288;10.458;2022-10-18T17:07:29;14.30;99.90
7240;DHT22;3661;53.288;10.458;2022-10-18T17:10:07;14.30;99.90
7240;DHT22;3661;53.288;10.458;2022-10-18T17:12:41;14.30;99.90
7240;DHT22;3661;53.288;10.458;2022-10-18T17:15:13;14.20;99.90
7240;DHT22;3661;53.288;10.458;2022-10-18T17:17:46;14.20;99.90
7240;DHT22;3661;53.288;10.458;2022-10-18T17:20:21;14.10;99.90
7240;DHT22;3661;53.288;10.458;2022-10-18T17:22:54;14.10;99.90
7240;DHT22;3661;53.288;10.458;2022-10-18T17:25:27;14.10;99.90
7240;DHT22;3661;53.288;10.458;2022-10-18T17:27:59;14.00;99.90
7240;DHT22;3661;53.288;10.458;2022-10-18T17:30:32;14.00;99.90
7240;DHT22;3661;53.288;10.458;2022-10-18T17:33:04;13.90;99.90
7240;DHT22;3661;53.288;10.458;2022-10-18T17:35:36;13.80;99.90
7240;DHT22;3661;53.288;10.458;2022-10-18T17:38:09;13.80;99.90
7240;DHT22;3661;53.288;10.458;2022-10-18T17:40:43;13.70;99.90
7240;DHT22;3661;53.288;10.458;2022-10-18T17:43:15;13.70;99.90
7240;DHT22;3661;53.288;10.458;2022-10-18T17:45:47;13.60;99.90
7240;DHT22;3661;53.288;10.458;2022-10-18T17:48:20;13.60;99.90
7240;DHT22;3661;53.288;10.458;2022-10-18T17:50:52;13.60;99.90
7240;DHT22;3661;53.288;10.458;2022-10-18T17:53:25;13.60;99.90
7240;DHT22;3661;53.288;10.458;2022-10-18T17:56:07;13.50;99.90
7240;DHT22;3661;53.288;10.458;2022-10-18T17:58:39;13.50;99.90
7240;DHT22;3661;53.288;10.458;2022-10-18T18:01:14;13.40;99.90
7240;DHT22;3661;53.288;10.458;2022-10-18T18:03:47;13.40;99.90
7240;DHT22;3661;53.288;10.458;2022-10-18T18:06:24;13.40;99.90
7240;DHT22;3661;53.288;10.458;2022-10-18T18:09:03;13.40;99.90
7240;DHT22;3661;53.288;10.458;2022-10-18T18:11:40;13.30;99.90
7240;DHT22;3661;53.288;10.458;2022-10-18T18:14:15;13.20;99.90
7240;DHT22;3661;53.288;10.458;2022-10-18T18:16:58;13.20;99.90
7240;DHT22;3661;53.288;10.458;2022-10-18T18:19:34;13.20;99.90
7240;DHT22;3661;53.288;10.458;2022-10-18T18:22:07;13.20;99.90
7240;DHT22;3661;53.288;10.458;2022-10-18T18:24:42;13.10;99.90
7240;DHT22;3661;53.288;10.458;2022-10-18T18:27:16;13.10;99.90
7240;DHT22;3661;53.288;10.458;2022-10-18T18:29:50;13.10;99.90
7240;DHT22;3661;53.288;10.458;2022-10-18T18:32:22;13.10;99.90
7240;DHT22;3661;53.288;10.458;2022-10-18T18:34:55;13.00;99.90
7240;DHT22;3661;53.288;10.458;2022-10-18T18:37:27;13.00;99.90
7240;DHT22;3661;53.288;10.458;2022-10-18T18:40:12;13.00;99.90
7240;DHT22;3661;53.288;10.458;2022-10-18T18:42:52;13.00;99.90
7240;DHT22;3661;53.288;10.458;2022-10-18T18:45:24;13.00;99.90
7240;DHT22;3661;53.288;10.458;2022-10-18T18:47:59;13.00;99.90
7240;DHT22;3661;53.288;10.458;2022-10-18T18:50:31;13.00;99.90
7240;DHT22;3661;53.288;10.458;2022-10-18T18:53:10;13.00;99.90
7240;DHT22;3661;53.288;10.458;2022-10-18T18:55:43;12.90;99.90
7240;DHT22;3661;53.288;10.458;2022-10-18T18:58:17;12.90;99.90
7240;DHT22;3661;53.288;10.458;2022-10-18T19:00:52;12.90;99.90
7240;DHT22;3661;53.288;10.458;2022-10-18T19:03:24;12.90;99.90
7240;DHT22;3661;53.288;10.458;2022-10-18T19:06:03;12.90;99.90
7240;DHT22;3661;53.288;10.458;2022-10-18T19:08:37;12.90;99.90
7240;DHT22;3661;53.288;10.458;2022-10-18T19:11:15;12.90;99.90
7240;DHT22;3661;53.288;10.458;2022-10-18T19:13:52;12.90;99.90
7240;DHT22;3661;53.288;10.458;2022-10-18T19:16:26;12.80;99.90
7240;DHT22;3661;53.288;10.458;2022-10-18T19:19:00;12.90;99.90
7240;DHT22;3661;53.288;10.458;2022-10-18T19:21:36;12.90;99.90
7240;DHT22;3661;53.288;10.458;2022-10-18T19:24:10;12.80;99.90
7240;DHT22;3661;53.288;10.458;2022-10-18T19:26:44;12.90;99.90
7240;DHT22;3661;53.288;10.458;2022-10-18T19:29:20;12.90;99.90
7240;DHT22;3661;53.288;10.458;2022-10-18T19:31:54;12.80;99.90
7240;DHT22;3661;53.288;10.458;2022-10-18T19:34:28;12.80;99.90
7240;DHT22;3661;53.288;10.458;2022-10-18T19:37:03;12.80;99.90
7240;DHT22;3661;53.288;10.458;2022-10-18T19:39:45;12.90;99.90
7240;DHT22;3661;53.288;10.458;2022-10-18T19:42:19;12.80;99.90
7240;DHT22;3661;53.288;10.458;2022-10-18T19:44:58;12.80;99.90
7240;DHT22;3661;53.288;10.458;2022-10-18T19:47:34;12.80;99.90
7240;DHT22;3661;53.288;10.458;2022-10-18T19:50:08;12.80;99.90
7240;DHT22;3661;53.288;10.458;2022-10-18T19:52:40;12.80;99.90
7240;DHT22;3661;53.288;10.458;2022-10-18T19:55:12;12.80;99.90
7240;DHT22;3661;53.288;10.458;2022-10-18T19:57:45;12.80;99.90
7240;DHT22;3661;53.288;10.458;2022-10-18T20:00:19;12.80;99.90
7240;DHT22;3661;53.288;10.458;2022-10-18T20:02:52;12.80;99.90
7240;DHT22;3661;53.288;10.458;2022-10-18T20:05:24;12.80;99.90
7240;DHT22;3661;53.288;10.458;2022-10-18T20:07:56;12.80;99.90
7240;DHT22;3661;53.288;10.458;2022-10-18T20:10:29;12.80;99.90
7240;DHT22;3661;53.288;10.458;2022-10-18T20:13:01;12.80;99.90
7240;DHT22;3661;53.288;10.458;2022-10-18T20:15:41;12.80;99.90
7240;DHT22;3661;53.288;10.458;2022-10-18T20:18:15;12.80;99.90
7240;DHT22;3661;53.288;10.458;2022-10-18T20:20:49;12.80;99.90
7240;DHT22;3661;53.288;10.458;2022-10-18T20:23:22;12.80;99.90
7240;DHT22;3661;53.288;10.458;2022-10-18T20:25:57;12.80;99.90
7240;DHT22;3661;53.288;10.458;2022-10-18T20:28:30;12.80;99.90
7240;DHT22;3661;53.288;10.458;2022-10-18T20:31:06;12.80;99.90
7240;DHT22;3661;53.288;10.458;2022-10-18T20:33:42;12.80;99.90
7240;DHT22;3661;53.288;10.458;2022-10-18T20:36:18;12.80;99.90
7240;DHT22;3661;53.288;10.458;2022-10-18T20:38:50;12.80;99.90
7240;DHT22;3661;53.288;10.458;2022-10-18T20:41:24;12.80;99.90
7240;DHT22;3661;53.288;10.458;2022-10-18T20:44:00;12.80;99.90
7240;DHT22;3661;53.288;10.458;2022-10-18T20:46:36;12.80;99.90
7240;DHT22;3661;53.288;10.458;2022-10-18T20:49:13;12.80;99.90
7240;DHT22;3661;53.288;10.458;2022-10-18T20:51:45;12.70;99.90
7240;DHT22;3661;53.288;10.458;2022-10-18T20:54:17;12.70;99.90
7240;DHT22;3661;53.288;10.458;2022-10-18T20:56:50;12.80;99.90
7240;DHT22;3661;53.288;10.458;2022-10-18T20:59:22;12.70;99.90
7240;DHT22;3661;53.288;10.458;2022-10-18T21:23:10;12.70;99.90
7240;DHT22;3661;53.288;10.458;2022-10-18T21:25:49;12.70;99.90
7240;DHT22;3661;53.288;10.458;2022-10-18T21:28:23;12.70;99.90
7240;DHT22;3661;53.288;10.458;2022-10-18T21:30:55;12.70;99.90
7240;DHT22;3661;53.288;10.458;2022-10-18T21:33:38;12.70;99.90
7240;DHT22;3661;53.288;10.458;2022-10-18T21:36:13;12.70;99.90
7240;DHT22;3661;53.288;10.458;2022-10-18T21:38:48;12.70;99.90
7240;DHT22;3661;53.288;10.458;2022-10-18T21:41:21;12.70;99.90
7240;DHT22;3661;53.288;10.458;2022-10-18T21:43:55;12.70;99.90
7240;DHT22;3661;53.288;10.458;2022-10-18T21:46:28;12.70;99.90